Time;durP1;ratioP1;P1;durP2;ratioP2;P2;SDS_P1;SDS_P2;PMS_P1;PMS_P2;Temp;Humidity;BMP_temperature;BMP_pressure;BME280_temperature;BME280_humidity;BME280_pressure;Samples;Min_cycle;Max_cycle;Signal;HPM_P1;HPM_P2
2021/03/23 00:00:52;;;;;;;5.40;1.77;;;;;;;-1.36;57.32;98937.55;1642504;87;21633;-70
2021/03/23 00:03:29;;;;;;;5.08;1.92;;;;;;;-1.40;57.58;98930.99;1683531;85;21589;-70
2021/03/23 00:05:57;;;;;;;6.33;1.82;;;;;;;-1.45;57.89;98930.29;1692820;83;21125;-70
2021/03/23 00:08:41;;;;;;;6.53;1.98;;;;;;;-1.49;57.93;98929.11;1717281;83;21145;-70
2021/03/23 00:11:27;;;;;;;9.80;2.42;;;;;;;-1.50;58.01;98934.14;1717682;83;21596;-70
2021/03/23 00:13:58;;;;;;;7.47;2.70;;;;;;;-1.55;58.21;98938.77;1717415;83;21181;-71
2021/03/23 00:16:29;;;;;;;9.08;2.05;;;;;;;-1.58;58.18;98939.20;1715455;83;21451;-71
2021/03/23 00:18:58;;;;;;;6.40;2.00;;;;;;;-1.64;58.59;98933.39;1717396;83;21639;-72
2021/03/23 00:21:26;;;;;;;5.90;1.57;;;;;;;-1.64;58.54;98943.23;1717574;83;21628;-71
2021/03/23 00:23:56;;;;;;;5.33;2.08;;;;;;;-1.70;58.77;98941.43;1689916;83;21607;-71
2021/03/23 00:26:24;;;;;;;7.05;2.10;;;;;;;-1.71;58.87;98937.94;1695672;83;21189;-71
2021/03/23 00:28:54;;;;;;;6.67;1.87;;;;;;;-1.72;58.91;98932.29;1654159;87;21201;-71
2021/03/23 00:31:29;;;;;;;6.30;2.65;;;;;;;-1.73;59.07;98934.65;1642635;87;21154;-71
2021/03/23 00:34:00;;;;;;;6.20;2.75;;;;;;;-1.75;59.21;98927.89;1629178;87;21202;-71
2021/03/23 00:36:38;;;;;;;6.80;2.77;;;;;;;-1.78;59.34;98924.32;1644634;86;21157;-70
2021/03/23 00:39:08;;;;;;;7.85;2.90;;;;;;;-1.81;59.46;98928.23;1655083;85;21360;-71
2021/03/23 00:41:39;;;;;;;8.78;3.35;;;;;;;-1.89;59.62;98923.64;1723343;83;21589;-72
2021/03/23 00:44:10;;;;;;;10.03;3.30;;;;;;;-1.94;60.03;98928.27;1723307;82;21177;-69
2021/03/23 00:46:37;;;;;;;9.75;3.52;;;;;;;-1.99;60.20;98929.95;1723185;83;21129;-70
2021/03/23 00:49:06;;;;;;;8.78;2.90;;;;;;;-2.02;60.23;98927.98;1723048;83;21168;-70
2021/03/23 00:51:34;;;;;;;6.90;2.85;;;;;;;-2.03;60.28;98926.88;1723330;83;21185;-69
2021/03/23 00:54:01;;;;;;;7.08;2.83;;;;;;;-2.07;60.39;98934.48;1723348;83;21125;-69
2021/03/23 00:56:29;;;;;;;9.08;3.27;;;;;;;-2.10;60.57;98934.09;1698664;83;21610;-70
2021/03/23 00:58:57;;;;;;;7.70;3.37;;;;;;;-2.14;60.79;98934.20;1632569;86;21249;-70
2021/03/23 01:01:24;;;;;;;11.70;3.22;;;;;;;-2.16;60.91;98932.27;1692927;85;21579;-69
2021/03/23 01:03:53;;;;;;;7.65;2.90;;;;;;;-2.21;61.15;98930.73;1657634;86;21578;-70
2021/03/23 01:06:21;;;;;;;6.47;2.83;;;;;;;-2.23;61.45;98929.59;1723256;83;21760;-71
2021/03/23 01:08:48;;;;;;;8.13;3.08;;;;;;;-2.28;61.82;98924.09;1723374;82;21189;-70
2021/03/23 01:11:16;;;;;;;8.88;3.08;;;;;;;-2.29;61.81;98928.28;1723293;83;21157;-70
2021/03/23 01:13:44;;;;;;;7.58;3.30;;;;;;;-2.29;61.97;98930.95;1720297;82;21168;-71
2021/03/23 01:16:12;;;;;;;6.83;2.65;;;;;;;-2.33;62.09;98929.72;1676099;83;21149;-70
2021/03/23 01:18:40;;;;;;;6.85;3.08;;;;;;;-2.38;62.39;98927.70;1723298;83;21593;-70
2021/03/23 01:21:07;;;;;;;10.32;3.35;;;;;;;-2.41;62.58;98931.30;1723402;83;21192;-69
2021/03/23 01:23:35;;;;;;;8.43;3.20;;;;;;;-2.44;62.68;98927.19;1678676;84;21162;-71
2021/03/23 01:26:02;;;;;;;9.10;3.00;;;;;;;-2.46;62.92;98927.09;1692738;85;21201;-71
2021/03/23 01:28:30;;;;;;;8.18;3.10;;;;;;;-2.50;63.07;98922.69;1656947;86;21217;-71
2021/03/23 01:30:57;;;;;;;10.60;2.92;;;;;;;-2.48;63.09;98925.16;1692790;85;21616;-71
2021/03/23 01:33:25;;;;;;;7.75;3.12;;;;;;;-2.52;63.17;98928.75;1694715;83;21625;-71
2021/03/23 01:35:54;;;;;;;9.38;3.22;;;;;;;-2.54;63.26;98922.80;1693014;83;21225;-71
2021/03/23 01:38:21;;;;;;;7.72;2.72;;;;;;;-2.53;63.30;98927.94;1692846;85;21581;-71
2021/03/23 01:40:49;;;;;;;7.22;2.92;;;;;;;-2.54;63.42;98922.80;1684177;84;21178;-71
2021/03/23 01:43:29;;;;;;;6.83;2.45;;;;;;;-2.54;63.68;98927.62;1636529;88;21176;-71
2021/03/23 01:45:58;;;;;;;8.65;2.95;;;;;;;-2.56;63.80;98926.20;1671242;86;21212;-71
2021/03/23 01:48:30;;;;;;;6.42;2.50;;;;;;;-2.58;63.87;98926.39;1709711;82;21134;-71
2021/03/23 01:51:04;;;;;;;6.20;2.70;;;;;;;-2.60;64.11;98924.97;1709262;84;21185;-70
2021/03/23 01:53:47;;;;;;;8.88;2.70;;;;;;;-2.64;64.17;98930.40;1687745;83;21577;-70
2021/03/23 01:56:16;;;;;;;6.37;2.50;;;;;;;-2.65;64.21;98924.25;1679952;84;21617;-70
2021/03/23 01:58:46;;;;;;;7.70;3.45;;;;;;;-2.69;64.28;98924.34;1635384;88;21169;-69
2021/03/23 02:01:15;;;;;;;9.15;3.40;;;;;;;-2.75;64.40;98929.18;1690035;84;21145;-70
2021/03/23 02:03:44;;;;;;;7.12;2.80;;;;;;;-2.78;64.52;98925.59;1709528;83;21327;-70
2021/03/23 02:06:44;;;;;;;6.62;2.65;;;;;;;-2.79;64.61;98919.95;1709518;83;21194;-69
2021/03/23 02:09:19;;;;;;;6.35;2.47;;;;;;;-2.82;64.63;98917.70;1709351;83;21134;-71
2021/03/23 02:11:57;;;;;;;5.50;2.35;;;;;;;-2.86;64.81;98916.47;1707650;83;21296;-71
2021/03/23 02:14:32;;;;;;;5.08;2.02;;;;;;;-2.88;65.03;98927.86;1709551;83;21393;-71
2021/03/23 02:17:29;;;;;;;6.40;2.47;;;;;;;-2.89;65.13;98925.39;1709739;84;21290;-71
2021/03/23 02:20:15;;;;;;;6.25;2.40;;;;;;;-2.95;65.26;98923.05;1708752;83;21147;-70
2021/03/23 02:22:49;;;;;;;7.95;2.60;;;;;;;-2.98;65.28;98925.30;1709581;84;21235;-71
2021/03/23 02:25:23;;;;;;;6.83;2.60;;;;;;;-3.05;65.41;98932.75;1709602;83;21625;-71
2021/03/23 02:27:52;;;;;;;7.42;2.60;;;;;;;-3.05;65.55;98929.30;1709672;84;21154;-71
2021/03/23 02:30:31;;;;;;;9.73;3.22;;;;;;;-3.07;65.60;98932.66;1707336;83;21978;-71
2021/03/23 02:32:58;;;;;;;8.48;3.72;;;;;;;-3.10;65.97;98921.91;1707104;84;21300;-71
2021/03/23 02:35:27;;;;;;;8.08;3.40;;;;;;;-3.14;66.15;98933.98;1709214;84;21213;-72
2021/03/23 02:37:55;;;;;;;11.10;3.05;;;;;;;-3.18;66.34;98934.59;1709830;84;21586;-72
2021/03/23 02:40:24;;;;;;;7.00;3.47;;;;;;;-3.21;66.35;98935.82;1688512;84;21201;-71
2021/03/23 02:42:52;;;;;;;7.33;3.47;;;;;;;-3.25;66.41;98930.59;1635480;88;21178;-70
2021/03/23 02:45:19;;;;;;;11.68;4.10;;;;;;;-3.29;66.57;98936.01;1679631;85;21158;-72
2021/03/23 02:47:47;;;;;;;11.57;4.33;;;;;;;-3.30;66.61;98934.39;1635299;88;21189;-70
2021/03/23 02:50:15;;;;;;;7.62;3.47;;;;;;;-3.27;66.60;98943.80;1681628;84;21154;-71
2021/03/23 02:52:43;;;;;;;12.07;4.03;;;;;;;-3.28;66.47;98940.83;1615117;88;21165;-72
2021/03/23 02:55:11;;;;;;;13.20;4.55;;;;;;;-3.27;66.36;98944.63;1679861;85;21207;-71
2021/03/23 02:57:39;;;;;;;11.08;3.77;;;;;;;-3.33;66.49;98944.08;1635507;88;21621;-72
2021/03/23 03:00:10;;;;;;;10.18;3.90;;;;;;;-3.31;66.52;98935.41;1707730;84;21259;-71
2021/03/23 03:02:38;;;;;;;11.95;4.30;;;;;;;-3.31;66.39;98942.56;1709503;83;21138;-72
2021/03/23 03:05:07;;;;;;;13.88;4.75;;;;;;;-3.31;66.52;98943.89;1709640;84;21587;-72
2021/03/23 03:07:34;;;;;;;10.50;4.25;;;;;;;-3.32;66.53;98947.06;1689693;84;21190;-72
2021/03/23 03:10:04;;;;;;;11.12;4.20;;;;;;;-3.30;66.41;98941.55;1707406;84;21303;-72
2021/03/23 03:12:32;;;;;;;13.38;4.17;;;;;;;-3.30;66.32;98945.03;1666948;84;21157;-71
2021/03/23 03:15:00;;;;;;;12.45;3.85;;;;;;;-3.31;66.40;98946.55;1709637;83;21237;-73
2021/03/23 03:17:28;;;;;;;11.35;4.00;;;;;;;-3.33;66.43;98942.75;1703688;84;21170;-72
2021/03/23 03:19:57;;;;;;;10.60;3.70;;;;;;;-3.33;66.45;98944.08;1635252;87;21223;-73
2021/03/23 03:22:24;;;;;;;8.88;3.22;;;;;;;-3.32;66.42;98939.08;1660631;85;21406;-72
2021/03/23 03:24:51;;;;;;;8.10;3.08;;;;;;;-3.30;66.42;98946.88;1635441;88;21347;-71
2021/03/23 03:27:19;;;;;;;9.68;3.35;;;;;;;-3.31;66.52;98949.22;1679615;85;21130;-71
2021/03/23 03:29:47;;;;;;;12.18;4.22;;;;;;;-3.32;66.54;98948.90;1674963;85;21157;-72
2021/03/23 03:32:14;;;;;;;8.90;3.17;;;;;;;-3.31;66.63;98946.55;1675653;85;21730;-72
2021/03/23 03:34:42;;;;;;;11.50;4.17;;;;;;;-3.31;66.71;98945.22;1675666;85;21189;-71
2021/03/23 03:37:09;;;;;;;8.33;4.20;;;;;;;-3.30;66.73;98944.21;1675484;85;21185;-72
2021/03/23 03:39:37;;;;;;;10.68;4.50;;;;;;;-3.30;66.86;98942.88;1675441;85;21177;-72
2021/03/23 03:42:07;;;;;;;10.13;4.47;;;;;;;-3.29;67.02;98945.83;1655985;86;21233;-73
2021/03/23 03:44:34;;;;;;;10.93;4.50;;;;;;;-3.30;67.19;98947.70;1675585;85;21181;-72
2021/03/23 03:47:02;;;;;;;12.13;5.12;;;;;;;-3.30;67.26;98941.55;1675345;84;21187;-73
2021/03/23 03:49:30;;;;;;;15.38;6.20;;;;;;;-3.29;67.39;98939.17;1670853;84;21364;-73
2021/03/23 03:51:58;;;;;;;13.58;6.20;;;;;;;-3.25;67.26;98945.23;1670418;86;21213;-72
2021/03/23 03:54:26;;;;;;;10.90;4.92;;;;;;;-3.27;67.23;98941.97;1642234;86;21201;-72
2021/03/23 03:56:54;;;;;;;13.53;4.40;;;;;;;-3.25;67.08;98941.23;1670461;86;21582;-71
2021/03/23 03:59:21;;;;;;;13.10;4.50;;;;;;;-3.26;66.96;98944.13;1670891;86;21211;-71
2021/03/23 04:01:49;;;;;;;10.80;3.55;;;;;;;-3.26;66.93;98949.45;1671124;86;21748;-71
2021/03/23 04:04:17;;;;;;;7.60;2.58;;;;;;;-3.26;67.00;98947.58;1671166;86;21189;-71
2021/03/23 04:06:44;;;;;;;5.55;1.90;;;;;;;-3.29;67.12;98947.16;1668947;85;21213;-72
2021/03/23 04:09:12;;;;;;;4.65;1.80;;;;;;;-3.33;67.04;98952.06;1670586;85;21173;-72
2021/03/23 04:11:41;;;;;;;6.67;1.90;;;;;;;-3.29;66.96;98955.97;1671577;86;21304;-73
2021/03/23 04:14:10;;;;;;;4.28;1.60;;;;;;;-3.26;66.87;98949.45;1675025;86;21197;-71
2021/03/23 04:16:39;;;;;;;4.25;1.42;;;;;;;-3.23;66.75;98957.84;1648493;85;21135;-71
2021/03/23 04:19:08;;;;;;;5.78;1.98;;;;;;;-3.26;66.70;98957.43;1637817;84;21660;-73
2021/03/23 04:21:35;;;;;;;3.67;1.22;;;;;;;-3.24;66.66;98964.18;1679807;85;21170;-71
2021/03/23 04:24:06;;;;;;;5.12;2.12;;;;;;;-3.24;66.68;98961.52;1679851;85;21154;-72
2021/03/23 04:26:33;;;;;;;6.35;2.15;;;;;;;-3.21;66.64;98957.63;1616376;88;21182;-72
2021/03/23 04:29:02;;;;;;;8.40;3.25;;;;;;;-3.20;66.79;98968.08;1647688;86;21243;-72
2021/03/23 04:31:38;;;;;;;11.55;4.90;;;;;;;-3.18;66.79;98962.54;1671228;86;21216;-71
2021/03/23 04:34:07;;;;;;;12.73;5.47;;;;;;;-3.17;66.74;98968.18;1642362;86;21165;-73
2021/03/23 04:36:35;;;;;;;14.18;4.67;;;;;;;-3.10;66.85;98969.02;1671055;86;21201;-72
2021/03/23 04:39:08;;;;;;;11.78;5.10;;;;;;;-3.02;66.84;98978.14;1670941;85;21177;-72
2021/03/23 04:41:37;;;;;;;11.33;4.62;;;;;;;-2.95;67.04;98972.82;1670915;84;21230;-72
2021/03/23 04:44:05;;;;;;;11.03;3.80;;;;;;;-2.86;67.07;98971.58;1669987;86;21185;-72
2021/03/23 04:46:33;;;;;;;6.62;2.60;;;;;;;-2.79;66.77;98978.56;1687515;85;21177;-73
2021/03/23 04:49:01;;;;;;;7.70;2.37;;;;;;;-2.72;66.38;98970.05;1687637;83;21201;-72
2021/03/23 04:51:30;;;;;;;5.67;2.05;;;;;;;-2.67;66.47;98972.11;1660524;85;21235;-72
2021/03/23 04:54:05;;;;;;;5.42;1.87;;;;;;;-2.58;65.90;98975.69;1688030;83;21181;-71
2021/03/23 04:56:36;;;;;;;3.72;1.32;;;;;;;-2.46;65.64;98977.73;1687396;85;21197;-71
2021/03/23 04:59:04;;;;;;;4.62;1.50;;;;;;;-2.39;65.46;98976.70;1654125;86;21332;-72
2021/03/23 05:01:32;;;;;;;7.33;1.95;;;;;;;-2.29;65.01;98978.94;1644701;86;21177;-71
2021/03/23 05:04:04;;;;;;;5.95;1.65;;;;;;;-2.20;64.67;98968.38;1654382;87;21201;-72
2021/03/23 05:06:32;;;;;;;3.17;1.30;;;;;;;-2.05;64.18;98975.59;1642806;87;21202;-72
2021/03/23 05:09:01;;;;;;;4.05;1.47;;;;;;;-1.95;63.87;98979.18;1693069;83;21126;-71
2021/03/23 05:11:30;;;;;;;5.05;1.60;;;;;;;-1.91;63.26;98983.07;1717736;83;21185;-71
2021/03/23 05:14:00;;;;;;;6.08;1.85;;;;;;;-1.76;62.95;98976.44;1717799;83;21647;-72
2021/03/23 05:16:27;;;;;;;5.67;1.65;;;;;;;-1.64;62.65;98981.94;1717562;83;21209;-71
2021/03/23 05:18:55;;;;;;;3.85;1.32;;;;;;;-1.51;62.19;98982.69;1717646;83;21581;-72
2021/03/23 05:21:23;;;;;;;4.75;1.67;;;;;;;-1.40;61.62;98985.20;1689763;83;21249;-72
2021/03/23 05:23:58;;;;;;;7.25;1.92;;;;;;;-1.33;61.13;98978.50;1655331;86;21197;-71
2021/03/23 05:26:26;;;;;;;5.90;1.82;;;;;;;-1.23;61.34;98978.84;1671075;86;21241;-72
2021/03/23 05:28:54;;;;;;;6.42;1.42;;;;;;;-1.06;61.12;98979.97;1657887;86;21186;-72
2021/03/23 05:31:22;;;;;;;6.97;1.52;;;;;;;-0.95;60.60;98977.95;1687298;85;21170;-70
2021/03/23 05:33:52;;;;;;;3.10;1.20;;;;;;;-0.79;60.07;98983.30;1687331;85;21186;-71
2021/03/23 05:36:20;;;;;;;5.00;1.50;;;;;;;-0.63;60.22;98984.91;1687331;85;21337;-70
2021/03/23 05:38:48;;;;;;;3.77;1.47;;;;;;;-0.55;59.69;98980.63;1689430;83;21173;-71
2021/03/23 05:42:06;;;;;;;7.62;1.90;;;;;;;-0.43;58.99;98987.42;1689307;83;21197;-72
2021/03/23 05:44:46;;;;;;;5.75;1.85;;;;;;;-0.34;59.05;98987.95;1692981;85;21192;-72
2021/03/23 05:47:19;;;;;;;4.60;1.32;;;;;;;-0.17;58.30;98985.00;1693107;83;21258;-72
2021/03/23 05:49:58;;;;;;;3.90;1.52;;;;;;;0.08;58.30;98989.79;1667145;85;21165;-72
2021/03/23 05:52:31;;;;;;;4.30;1.57;;;;;;;0.23;57.14;98988.91;1643911;86;21234;-72
2021/03/23 05:55:04;;;;;;;4.00;1.67;;;;;;;0.32;57.37;98991.57;1692959;84;21183;-71
2021/03/23 05:57:39;;;;;;;5.17;1.80;;;;;;;0.37;56.79;98990.39;1694673;83;21174;-71
2021/03/23 06:00:31;;;;;;;5.30;1.65;;;;;;;0.52;56.76;98992.69;1657260;86;21652;-71
2021/03/23 06:03:21;;;;;;;5.65;1.57;;;;;;;0.73;55.88;98994.06;1692917;84;21241;-71
2021/03/23 06:05:56;;;;;;;3.72;1.60;;;;;;;0.91;56.27;98985.47;1692824;84;21233;-71
2021/03/23 06:08:28;;;;;;;4.58;2.02;;;;;;;1.03;54.77;98987.37;1722024;83;21584;-72
2021/03/23 06:11:19;;;;;;;6.03;2.10;;;;;;;1.06;54.98;98989.08;1724377;83;21114;-73
2021/03/23 06:14:15;;;;;;;4.75;1.90;;;;;;;1.15;54.48;98988.21;1726442;83;21207;-72
2021/03/23 06:16:59;;;;;;;4.72;1.85;;;;;;;1.04;52.95;98984.97;1724876;83;21613;-73
2021/03/23 06:20:01;;;;;;;4.92;2.00;;;;;;;1.00;53.27;98985.43;1660206;86;21204;-72
2021/03/23 06:22:46;;;;;;;3.58;1.50;;;;;;;1.09;53.20;98983.77;1694869;85;21212;-71
2021/03/23 06:25:41;;;;;;;4.03;1.50;;;;;;;1.24;53.58;98992.22;1695212;83;21153;-71
2021/03/23 06:28:53;;;;;;;3.75;1.42;;;;;;;1.41;53.29;98992.66;1723628;83;21165;-72
2021/03/23 06:31:54;;;;;;;7.65;1.98;;;;;;;1.64;51.97;98995.06;1722680;83;21612;-71
2021/03/23 06:34:27;;;;;;;6.37;1.87;;;;;;;1.70;50.62;98997.63;1723225;83;21142;-71
2021/03/23 06:36:56;;;;;;;4.62;1.57;;;;;;;1.64;50.40;98994.54;1721120;83;21165;-71
2021/03/23 06:39:23;;;;;;;6.37;1.98;;;;;;;1.58;50.44;98998.67;1723124;83;21169;-70
2021/03/23 06:42:01;;;;;;;4.12;2.05;;;;;;;1.67;51.03;98999.95;1717693;82;21213;-71
2021/03/23 06:44:38;;;;;;;5.83;1.62;;;;;;;1.81;50.77;99007.55;1709019;84;21207;-72
2021/03/23 06:47:06;;;;;;;4.08;1.95;;;;;;;1.88;50.52;98997.52;1710103;84;21613;-71
2021/03/23 06:49:37;;;;;;;6.25;2.30;;;;;;;1.95;50.64;99008.95;1709700;83;21209;-71
2021/03/23 06:52:22;;;;;;;7.60;2.20;;;;;;;1.93;48.64;99007.56;1709834;84;21224;-71
2021/03/23 06:55:24;;;;;;;6.42;2.10;;;;;;;1.97;48.28;99010.90;1709239;84;21146;-71
2021/03/23 06:57:51;;;;;;;4.12;1.80;;;;;;;2.08;47.72;99009.26;1709756;84;21186;-71
2021/03/23 07:00:28;;;;;;;4.05;1.50;;;;;;;2.09;47.13;99009.53;1679871;84;21704;-70
2021/03/23 07:03:08;;;;;;;5.12;2.00;;;;;;;2.17;47.08;99007.02;1679531;85;21201;-70
2021/03/23 07:05:43;;;;;;;6.58;2.22;;;;;;;2.19;47.15;99005.75;1818574;79;23131;-70
2021/03/23 07:08:20;;;;;;;4.62;1.60;;;;;;;2.28;47.34;99008.88;1792137;80;21750;-70
2021/03/23 07:11:02;;;;;;;5.05;1.62;;;;;;;2.41;45.99;99017.48;1761198;81;21623;-71
2021/03/23 07:13:33;;;;;;;3.35;1.25;;;;;;;2.54;45.81;99013.75;1760908;81;21125;-71
2021/03/23 07:16:12;;;;;;;4.30;1.17;;;;;;;2.59;43.17;99016.52;1758360;81;21148;-69
2021/03/23 07:18:45;;;;;;;4.33;1.20;;;;;;;2.47;43.81;99012.54;1751270;82;21154;-70
2021/03/23 07:21:31;;;;;;;2.60;1.12;;;;;;;2.62;42.34;99016.59;1751167;82;21280;-72
2021/03/23 07:24:13;;;;;;;5.50;1.60;;;;;;;2.65;42.11;99013.42;1755469;81;21177;-70
2021/03/23 07:26:44;;;;;;;5.62;1.50;;;;;;;2.72;43.06;99006.05;1760986;81;21148;-70
2021/03/23 07:29:24;;;;;;;3.58;1.17;;;;;;;2.71;42.23;99010.59;1759216;81;21176;-69
2021/03/23 07:32:17;;;;;;;3.40;1.05;;;;;;;2.78;41.99;99009.11;1761085;81;21306;-69
2021/03/23 07:35:09;;;;;;;2.42;0.75;;;;;;;2.75;40.85;99003.70;1756155;81;21628;-68
2021/03/23 07:37:57;;;;;;;2.33;1.17;;;;;;;2.83;40.37;99007.36;1691645;85;21197;-70
2021/03/23 07:40:49;;;;;;;4.95;1.15;;;;;;;2.93;40.41;99008.07;1701911;84;21181;-70
2021/03/23 07:43:22;;;;;;;2.67;1.00;;;;;;;2.95;39.66;99010.80;1695651;84;21190;-72
2021/03/23 07:46:26;;;;;;;3.05;1.27;;;;;;;3.00;39.29;99010.91;1698354;84;21487;-70
2021/03/23 07:49:42;;;;;;;2.05;0.60;;;;;;;2.98;39.74;99004.12;1698356;84;21663;-69
2021/03/23 07:52:27;;;;;;;3.17;0.80;;;;;;;3.16;38.55;98997.20;1717726;83;21616;-69
2021/03/23 07:58:02;;;;;;;2.05;0.80;;;;;;;3.22;37.60;98990.88;1779176;79;23064;-70
2021/03/23 08:01:00;;;;;;;3.17;1.00;;;;;;;3.25;38.77;98994.94;1724398;81;21592;-69
2021/03/23 08:03:48;;;;;;;1.47;0.60;;;;;;;3.22;39.18;98984.15;1694759;83;21636;-69
2021/03/23 08:06:34;;;;;;;1.70;0.75;;;;;;;3.17;37.68;98987.26;1651132;87;21209;-71
2021/03/23 08:09:45;;;;;;;4.35;0.80;;;;;;;3.12;39.06;98986.63;1656119;86;21211;-71
2021/03/23 08:12:37;;;;;;;3.25;0.80;;;;;;;3.01;37.94;98992.35;1625143;86;21184;-70
2021/03/23 08:15:53;;;;;;;2.05;0.60;;;;;;;3.07;35.98;98984.39;1656218;86;21186;-71
2021/03/23 08:18:55;;;;;;;2.05;0.72;;;;;;;2.96;34.84;98991.45;1656199;86;21260;-71
2021/03/23 08:22:19;;;;;;;4.00;0.80;;;;;;;3.03;35.40;98973.30;1700678;83;21176;-71
2021/03/23 08:25:21;;;;;;;1.87;0.68;;;;;;;3.19;35.14;98979.78;1720133;82;21197;-68
2021/03/23 08:28:13;;;;;;;2.62;0.80;;;;;;;3.36;34.65;98980.09;1720302;83;21651;-70
2021/03/23 08:31:24;;;;;;;3.20;0.78;;;;;;;3.43;35.14;98982.09;1719930;83;21196;-68
2021/03/23 08:34:19;;;;;;;2.87;1.12;;;;;;;3.51;34.07;98980.32;1717674;82;21630;-70
2021/03/23 08:37:19;;;;;;;2.27;0.60;;;;;;;3.50;34.73;98979.23;1651093;87;21232;-69
2021/03/23 08:40:00;;;;;;;1.65;0.53;;;;;;;3.57;34.28;98978.55;1652807;85;21636;-69
2021/03/23 08:42:28;;;;;;;2.50;0.90;;;;;;;3.70;33.40;98972.00;1629900;86;21251;-70
2021/03/23 08:45:03;;;;;;;2.10;0.50;;;;;;;3.82;35.22;98991.59;1656392;86;21229;-70
2021/03/23 08:47:38;;;;;;;1.75;0.60;;;;;;;3.69;34.11;98983.82;1653185;86;21187;-70
2021/03/23 08:50:17;;;;;;;2.40;0.60;;;;;;;3.42;34.23;98980.98;1658169;85;21579;-72
2021/03/23 08:52:47;;;;;;;1.90;0.60;;;;;;;3.08;34.02;98982.81;1643784;86;21638;-71
2021/03/23 08:55:34;;;;;;;2.35;0.60;;;;;;;2.81;34.72;98985.78;1656222;86;21205;-70
2021/03/23 08:58:09;;;;;;;1.40;0.42;;;;;;;2.53;33.80;98987.92;1656286;86;21175;-70
2021/03/23 09:00:53;;;;;;;4.60;0.82;;;;;;;2.46;33.99;98988.58;1679657;85;21657;-68
2021/03/23 09:03:42;;;;;;;1.65;0.70;;;;;;;2.35;34.29;98988.08;1684041;85;21159;-69
2021/03/23 09:06:16;;;;;;;1.82;0.68;;;;;;;2.39;35.29;98983.34;1683936;85;21235;-70
2021/03/23 09:09:16;;;;;;;3.25;0.78;;;;;;;2.38;35.55;98988.42;1683334;84;21671;-69
2021/03/23 09:12:31;;;;;;;4.17;1.42;;;;;;;2.35;36.51;98990.24;1683002;84;21151;-70
2021/03/23 09:15:18;;;;;;;3.67;1.70;;;;;;;2.30;38.10;99000.86;1676559;85;21204;-68
2021/03/23 09:18:06;;;;;;;5.62;1.70;;;;;;;2.18;37.87;98990.69;1779206;79;23205;-70
2021/03/23 09:20:40;;;;;;;7.55;1.50;;;;;;;2.06;38.17;98990.39;1723497;82;21207;-70
2021/03/23 09:23:20;;;;;;;2.85;1.00;;;;;;;1.97;39.30;98994.80;1722848;82;21561;-71
2021/03/23 09:25:56;;;;;;;2.95;0.88;;;;;;;2.03;38.39;98984.15;1722633;83;21628;-69
2021/03/23 09:28:40;;;;;;;2.60;0.60;;;;;;;2.05;38.10;98980.20;1720553;83;21172;-69
2021/03/23 09:31:09;;;;;;;2.90;0.53;;;;;;;2.09;37.70;98974.63;1722267;83;21212;-69
2021/03/23 09:33:55;;;;;;;3.08;0.90;;;;;;;2.16;37.08;98971.84;1722887;82;21180;-71
2021/03/23 09:36:48;;;;;;;2.27;0.75;;;;;;;2.27;37.34;98977.69;1722539;83;21589;-70
2021/03/23 09:39:23;;;;;;;3.22;0.90;;;;;;;2.29;36.24;98971.58;1690749;85;21743;-69
2021/03/23 09:42:23;;;;;;;3.58;0.90;;;;;;;2.34;37.09;98977.03;1693848;85;21662;-69
2021/03/23 09:45:13;;;;;;;3.42;0.90;;;;;;;2.58;36.03;98970.58;1651122;87;21234;-70
2021/03/23 09:48:09;;;;;;;2.58;0.80;;;;;;;2.96;36.10;98945.75;1657942;85;21638;-68
2021/03/23 09:50:57;;;;;;;2.27;0.55;;;;;;;3.20;36.00;98966.59;1663282;85;21157;-71
2021/03/23 09:53:37;;;;;;;2.77;0.85;;;;;;;2.86;35.74;98978.65;1678478;84;21189;-71
2021/03/23 09:56:22;;;;;;;1.57;0.40;;;;;;;2.55;35.94;98985.80;1677308;85;21315;-71
2021/03/23 09:59:05;;;;;;;1.20;0.35;;;;;;;2.32;36.08;98981.31;1651295;87;21632;-70
2021/03/23 10:01:34;;;;;;;1.47;0.50;;;;;;;2.13;35.80;98978.48;1656108;86;21188;-69
2021/03/23 10:04:03;;;;;;;1.45;0.50;;;;;;;2.12;36.33;98977.39;1624086;88;21176;-69
2021/03/23 10:06:46;;;;;;;1.05;0.42;;;;;;;2.39;37.06;98967.23;1691351;83;21200;-69
2021/03/23 10:09:25;;;;;;;2.17;0.40;;;;;;;2.83;37.03;98960.31;1720030;82;21185;-70
2021/03/23 10:11:52;;;;;;;1.82;0.40;;;;;;;3.21;35.12;98956.95;1695887;83;21142;-69
2021/03/23 10:14:37;;;;;;;1.98;0.40;;;;;;;3.30;34.62;98966.25;1720053;82;21194;-69
2021/03/23 10:17:11;;;;;;;1.35;0.30;;;;;;;3.15;34.40;98968.69;1688991;83;21371;-69
2021/03/23 10:19:54;;;;;;;2.50;0.60;;;;;;;2.72;34.91;98981.86;1694715;85;21624;-69
2021/03/23 10:22:30;;;;;;;2.35;0.85;;;;;;;2.39;37.63;98977.98;1691089;85;21169;-71
2021/03/23 10:24:59;;;;;;;3.93;1.30;;;;;;;2.26;39.39;98975.56;1694720;85;21157;-71
2021/03/23 10:27:36;;;;;;;3.75;1.30;;;;;;;2.26;39.39;98975.56;1696343;83;21177;-70
2021/03/23 10:30:25;;;;;;;2.37;0.80;;;;;;;2.42;38.85;98972.13;1709752;83;21626;-70
2021/03/23 10:32:54;;;;;;;1.62;0.50;;;;;;;2.76;38.64;98966.36;1720616;83;21300;-70
2021/03/23 10:35:30;;;;;;;1.95;0.60;;;;;;;3.10;36.54;98955.67;1712464;82;21206;-71
2021/03/23 10:38:18;;;;;;;1.62;0.53;;;;;;;3.14;38.20;98963.02;1671411;84;21176;-71
2021/03/23 10:40:54;;;;;;;1.22;0.40;;;;;;;2.86;39.48;98981.34;1694161;85;21320;-69
2021/03/23 10:43:41;;;;;;;1.45;0.40;;;;;;;2.62;40.55;98976.28;1714891;83;21185;-70
2021/03/23 10:46:40;;;;;;;4.70;1.17;;;;;;;2.51;40.13;98973.92;1655799;86;21169;-69
2021/03/23 10:49:26;;;;;;;4.03;0.70;;;;;;;2.64;38.68;98978.20;1694195;85;21175;-71
2021/03/23 10:52:18;;;;;;;4.80;0.60;;;;;;;2.84;36.35;98968.65;1658295;86;21712;-71
2021/03/23 10:54:45;;;;;;;0.90;0.40;;;;;;;2.95;36.06;98970.99;1706177;83;21726;-71
2021/03/23 10:57:28;;;;;;;1.35;0.35;;;;;;;2.85;36.17;98969.47;1722916;83;21145;-71
2021/03/23 10:59:55;;;;;;;2.22;0.85;;;;;;;2.84;37.09;98987.98;1723035;82;21638;-69
2021/03/23 11:02:31;;;;;;;3.58;0.80;;;;;;;3.10;38.90;98988.76;1697148;83;21188;-70
2021/03/23 11:05:09;;;;;;;3.20;0.60;;;;;;;3.16;38.27;98991.81;1696154;83;21161;-69
2021/03/23 11:07:57;;;;;;;5.12;1.10;;;;;;;3.01;38.83;99000.42;1716000;83;21129;-70
2021/03/23 11:10:32;;;;;;;2.65;0.72;;;;;;;2.85;40.99;99004.41;1694378;83;21216;-69
2021/03/23 11:13:00;;;;;;;1.70;0.55;;;;;;;2.73;40.35;98983.50;1655824;86;21217;-70
2021/03/23 11:15:36;;;;;;;1.90;0.60;;;;;;;2.68;41.12;98986.07;1632198;86;21185;-70
2021/03/23 11:18:01;;;;;;;0.82;0.40;;;;;;;2.57;42.67;98990.42;1662752;85;21320;-70
2021/03/23 11:20:38;;;;;;;0.75;0.25;;;;;;;2.47;42.86;98989.70;1689132;85;21326;-70
2021/03/23 11:23:42;;;;;;;3.10;0.40;;;;;;;2.49;42.32;98983.55;1689140;85;21680;-69
2021/03/23 11:26:06;;;;;;;;;;;;;;;2.59;42.66;98975.42;1690798;85;21213;-70
2021/03/23 11:28:34;;;;;;;1.32;0.23;;;;;;;2.82;42.36;98966.73;1691279;83;20154;-70
2021/03/23 11:31:03;;;;;;;2.17;0.68;;;;;;;2.96;38.38;98972.63;1690613;85;21189;-71
2021/03/23 11:33:31;;;;;;;1.45;0.50;;;;;;;2.99;38.69;98967.59;1709669;82;21168;-71
2021/03/23 11:35:59;;;;;;;1.42;0.50;;;;;;;2.93;38.34;98960.50;1719213;83;21178;-72
2021/03/23 11:38:26;;;;;;;1.95;0.70;;;;;;;2.91;39.08;98972.00;1719287;82;21648;-69
2021/03/23 11:40:55;;;;;;;4.08;1.00;;;;;;;2.87;39.12;98990.22;1719191;83;21200;-71
2021/03/23 11:43:43;;;;;;;4.67;0.80;;;;;;;2.48;46.48;99018.70;1717074;82;21189;-72
2021/03/23 11:46:41;;;;;;;1.60;0.50;;;;;;;1.92;50.24;99008.09;1709813;83;21585;-70
2021/03/23 11:49:18;;;;;;;1.70;0.30;;;;;;;1.38;50.06;98999.80;1645392;87;21327;-69
2021/03/23 11:51:47;;;;;;;3.05;0.70;;;;;;;1.18;49.64;99002.49;1627315;86;21204;-70
2021/03/23 11:54:15;;;;;;;2.30;0.50;;;;;;;1.27;47.76;99002.48;1627257;88;21238;-71
2021/03/23 11:56:44;;;;;;;3.30;1.10;;;;;;;1.42;48.19;98997.47;1629694;86;21212;-70
2021/03/23 11:59:12;;;;;;;2.95;1.00;;;;;;;1.60;47.62;98994.70;1627184;87;21644;-71
2021/03/23 12:01:41;;;;;;;2.02;0.80;;;;;;;1.71;46.85;99003.30;1602108;88;21735;-71
2021/03/23 12:04:09;;;;;;;1.95;0.85;;;;;;;1.83;45.42;98990.71;1638820;86;21174;-70
2021/03/23 12:06:43;;;;;;;5.30;1.50;;;;;;;1.96;44.72;98986.95;1633170;86;21382;-69
2021/03/23 12:09:19;;;;;;;3.10;0.85;;;;;;;2.20;44.57;98977.00;1659534;86;21651;-70
2021/03/23 14:01:20;;;;;;;2.10;0.93;;;;;;;1.95;59.69;99025.06;1751175;79;23167;-67
2021/03/23 14:03:49;;;;;;;2.80;0.93;;;;;;;1.53;64.51;99042.28;1717470;82;21172;-64
2021/03/23 14:06:21;;;;;;;4.28;1.35;;;;;;;1.11;64.67;99034.77;1722723;83;21195;-64
2021/03/23 14:08:49;;;;;;;4.10;1.00;;;;;;;0.94;65.00;99038.61;1722824;83;21141;-67
2021/03/23 14:11:20;;;;;;;4.72;1.52;;;;;;;0.93;65.12;99049.02;1722804;83;21117;-67